Time;durP1;ratioP1;P1;durP2;ratioP2;P2;SDS_P1;SDS_P2;PMS_P1;PMS_P2;Temp;Humidity;BMP_temperature;BMP_pressure;BME280_temperature;BME280_humidity;BME280_pressure;Samples;Min_cycle;Max_cycle;Signal;HPM_P1;HPM_P2
2022/08/10 00:00:37;;;;;;;2.15;1.92;;;;;;;12.93;94.70;102786.38;4990891;28;20685;-54
2022/08/10 00:03:06;;;;;;;2.50;2.03;;;;;;;12.94;94.84;102786.34;4990010;28;20215;-53
2022/08/10 00:05:32;;;;;;;3.05;2.30;;;;;;;12.77;95.08;102783.03;4990917;28;20182;-52
2022/08/10 00:07:57;;;;;;;2.22;2.03;;;;;;;12.91;95.35;102790.88;4990684;28;20595;-52
2022/08/10 00:10:24;;;;;;;2.53;2.00;;;;;;;12.77;95.16;102777.66;4990918;28;20193;-52
2022/08/10 00:12:49;;;;;;;1.88;1.70;;;;;;;12.92;95.39;102780.09;4990828;28;20276;-52
2022/08/10 00:15:18;;;;;;;2.25;1.90;;;;;;;13.00;95.10;102774.56;4990496;28;20269;-51
2022/08/10 00:17:44;;;;;;;4.10;2.00;;;;;;;12.95;94.86;102781.84;4989625;28;20839;-51
2022/08/10 00:20:10;;;;;;;3.15;2.08;;;;;;;12.89;94.65;102779.25;4990472;28;20185;-52
2022/08/10 00:22:36;;;;;;;3.35;1.98;;;;;;;12.90;94.44;102772.94;4990666;28;20213;-51
2022/08/10 00:25:02;;;;;;;2.78;2.03;;;;;;;12.90;94.55;102770.25;4990035;28;20201;-52
2022/08/10 00:27:28;;;;;;;4.05;2.45;;;;;;;12.77;94.92;102774.97;4990721;28;20192;-51
2022/08/10 00:29:54;;;;;;;2.42;1.80;;;;;;;12.75;95.41;102783.06;4989559;28;20173;-51
2022/08/10 00:32:20;;;;;;;2.15;1.95;;;;;;;12.74;95.69;102770.50;4990241;28;20563;-52
2022/08/10 00:34:45;;;;;;;2.08;1.98;;;;;;;12.77;95.64;102769.59;4990253;28;20163;-53
2022/08/10 00:37:12;;;;;;;2.13;2.00;;;;;;;12.77;95.74;102785.75;4990634;28;20641;-52
2022/08/10 00:39:38;;;;;;;2.53;2.20;;;;;;;12.80;95.49;102768.66;4990709;28;20668;-52
2022/08/10 00:42:07;;;;;;;2.50;2.30;;;;;;;12.77;95.29;102772.28;4990494;28;20649;-53
2022/08/10 00:44:33;;;;;;;2.85;2.30;;;;;;;12.75;95.01;102766.94;4990152;28;20181;-53
2022/08/10 00:46:59;;;;;;;2.65;2.25;;;;;;;12.66;95.08;102763.47;4990332;28;20653;-53
2022/08/10 00:49:26;;;;;;;2.38;1.80;;;;;;;12.47;95.36;102766.47;4990365;28;20220;-54
2022/08/10 00:51:52;;;;;;;1.92;1.83;;;;;;;12.50;96.17;102761.03;4990597;28;20188;-54
2022/08/10 00:54:18;;;;;;;2.30;2.10;;;;;;;12.56;96.32;102765.44;4990486;28;20667;-52
2022/08/10 00:56:44;;;;;;;2.78;2.38;;;;;;;12.45;95.98;102772.78;4994202;28;20189;-52
2022/08/10 00:59:10;;;;;;;2.38;1.85;;;;;;;12.49;96.45;102774.50;4994427;28;20372;-53
2022/08/10 01:01:36;;;;;;;2.35;2.15;;;;;;;12.26;96.71;102761.41;4992571;28;20197;-52
2022/08/10 01:04:03;;;;;;;2.55;2.20;;;;;;;12.12;97.52;102770.53;4993774;28;20236;-52
2022/08/10 01:06:46;;;;;;;2.78;2.10;;;;;;;12.15;98.12;102765.13;4994003;28;20182;-52
2022/08/10 01:09:36;;;;;;;2.50;2.30;;;;;;;12.09;98.34;102770.59;4993788;28;20509;-52
2022/08/10 01:12:08;;;;;;;3.03;2.72;;;;;;;12.07;98.44;102768.81;4993580;28;20220;-52
2022/08/10 01:14:44;;;;;;;3.30;2.30;;;;;;;12.24;98.57;102766.78;4993309;28;20171;-51
2022/08/10 01:17:16;;;;;;;3.03;2.45;;;;;;;12.20;98.34;102759.69;4993891;28;20254;-52
2022/08/10 01:19:59;;;;;;;2.90;2.40;;;;;;;12.09;97.96;102761.63;4993853;28;20166;-52
2022/08/10 01:22:46;;;;;;;2.35;2.08;;;;;;;12.22;98.07;102765.03;4988053;28;20221;-52
2022/08/10 01:25:24;;;;;;;3.33;2.08;;;;;;;12.32;97.83;102759.50;4981361;28;20193;-52
2022/08/10 01:28:11;;;;;;;2.17;2.08;;;;;;;12.35;97.40;102764.84;4973968;28;20193;-53
2022/08/10 01:30:38;;;;;;;4.10;2.00;;;;;;;12.42;97.18;102767.44;4974113;28;20158;-54
2022/08/10 01:33:25;;;;;;;2.53;2.33;;;;;;;12.38;96.72;102765.72;4986247;28;20245;-54
2022/08/10 01:36:00;;;;;;;2.38;1.92;;;;;;;12.34;96.36;102771.13;4976074;28;20182;-52
2022/08/10 01:38:35;;;;;;;3.13;2.08;;;;;;;12.35;96.43;102762.16;4972658;28;20181;-55
2022/08/10 01:41:21;;;;;;;2.53;2.20;;;;;;;12.42;96.18;102771.03;4973491;28;20642;-54
2022/08/10 01:44:04;;;;;;;2.30;2.10;;;;;;;12.42;95.98;102762.06;4973348;28;20209;-53
2022/08/10 01:46:33;;;;;;;4.10;2.50;;;;;;;12.18;95.81;102764.22;4970730;28;20649;-53
2022/08/10 01:49:01;;;;;;;4.15;2.50;;;;;;;12.01;96.44;102769.81;4974130;28;20248;-52
2022/08/10 01:51:39;;;;;;;3.03;2.13;;;;;;;11.91;97.09;102768.13;4973904;28;20171;-54
2022/08/10 01:54:08;;;;;;;2.13;1.92;;;;;;;12.09;97.58;102758.94;4973157;28;20182;-52
2022/08/10 01:56:38;;;;;;;3.35;2.58;;;;;;;12.02;97.23;102760.81;4973729;28;20178;-52
2022/08/10 01:59:10;;;;;;;2.28;2.13;;;;;;;12.00;97.12;102769.81;4973119;28;20184;-54
2022/08/10 02:01:46;;;;;;;2.40;2.30;;;;;;;12.11;97.37;102762.50;4973373;28;20220;-53
2022/08/10 02:04:15;;;;;;;2.60;2.40;;;;;;;11.97;96.85;102769.88;4973094;28;20185;-54
2022/08/10 02:06:47;;;;;;;2.40;2.20;;;;;;;12.03;97.07;102762.63;4972471;28;20286;-53
2022/08/10 02:09:35;;;;;;;2.38;1.98;;;;;;;11.94;97.04;102752.00;4973518;28;20221;-52
2022/08/10 02:12:05;;;;;;;2.33;2.08;;;;;;;12.01;97.52;102753.69;4973244;28;20213;-51
2022/08/10 02:14:34;;;;;;;4.15;2.30;;;;;;;12.00;97.27;102772.50;4972973;28;20163;-54
2022/08/10 02:17:06;;;;;;;4.68;2.90;;;;;;;12.05;97.18;102773.34;4973285;28;20233;-54
2022/08/10 02:19:35;;;;;;;2.55;1.80;;;;;;;12.11;97.05;102765.19;4973569;28;20310;-54
2022/08/10 02:22:02;;;;;;;2.95;2.75;;;;;;;11.93;96.66;102769.00;4972706;28;20214;-54
2022/08/10 02:24:28;;;;;;;2.50;2.30;;;;;;;12.02;96.83;102768.00;4978292;28;20173;-51
2022/08/10 02:26:54;;;;;;;3.20;2.00;;;;;;;11.98;97.07;102783.25;4992451;28;20272;-52
2022/08/10 02:29:20;;;;;;;2.65;2.45;;;;;;;12.00;97.05;102776.06;4991133;28;20276;-52
2022/08/10 02:31:46;;;;;;;2.35;2.25;;;;;;;11.94;96.99;102774.38;4992593;28;20253;-54
2022/08/10 02:34:14;;;;;;;3.08;2.72;;;;;;;11.69;97.17;102784.47;4992097;28;20249;-54
2022/08/10 02:36:48;;;;;;;4.70;2.63;;;;;;;11.73;97.69;102782.66;4992261;28;20519;-53
2022/08/10 02:39:16;;;;;;;4.50;2.85;;;;;;;11.65;97.72;102776.47;4991755;28;20166;-54
2022/08/10 02:41:48;;;;;;;2.53;2.33;;;;;;;11.57;98.64;102781.94;4992271;28;20212;-55
2022/08/10 02:44:34;;;;;;;4.15;2.40;;;;;;;11.55;99.35;102776.59;4991910;28;20578;-55
2022/08/10 02:47:10;;;;;;;3.95;2.60;;;;;;;11.62;99.45;102773.84;4992004;28;20180;-53
2022/08/10 02:49:40;;;;;;;3.80;2.67;;;;;;;11.68;99.35;102781.81;4991218;28;20173;-52
2022/08/10 02:52:27;;;;;;;2.25;2.05;;;;;;;11.74;99.51;102776.34;4990524;28;20277;-51
2022/08/10 02:55:00;;;;;;;2.13;2.03;;;;;;;11.73;99.23;102775.47;4991521;28;20192;-53
2022/08/10 02:57:32;;;;;;;2.05;1.90;;;;;;;11.72;98.84;102787.13;4991797;28;20162;-48
2022/08/10 03:00:03;;;;;;;4.03;2.30;;;;;;;11.54;98.54;102781.97;4992201;28;20181;-47
2022/08/10 03:02:33;;;;;;;2.17;2.08;;;;;;;11.68;98.67;102781.81;4991657;28;20209;-47
2022/08/10 03:05:06;;;;;;;3.50;2.45;;;;;;;11.69;98.51;102770.16;4991487;28;20257;-47
2022/08/10 03:07:41;;;;;;;2.30;2.10;;;;;;;11.77;98.28;102781.72;4991992;28;20189;-46
2022/08/10 03:10:10;;;;;;;2.63;2.20;;;;;;;11.80;98.17;102780.78;4991505;28;20316;-50
2022/08/10 03:12:37;;;;;;;2.50;2.30;;;;;;;11.63;97.68;102786.34;4992272;28;20237;-49
2022/08/10 03:15:04;;;;;;;2.80;2.40;;;;;;;11.54;98.15;102777.50;4991462;28;20181;-49
2022/08/10 03:17:32;;;;;;;2.47;2.28;;;;;;;11.66;98.27;102778.25;4991493;28;20177;-52
2022/08/10 03:19:59;;;;;;;3.75;2.70;;;;;;;11.53;98.32;102785.56;4991200;28;20692;-50
2022/08/10 03:22:26;;;;;;;2.75;2.55;;;;;;;11.44;99.05;102781.19;4985657;28;20216;-49
2022/08/10 03:24:53;;;;;;;2.47;2.28;;;;;;;11.37;99.53;102776.78;4979588;28;20533;-49
2022/08/10 03:27:21;;;;;;;2.65;2.20;;;;;;;11.48;99.74;102779.38;4971901;28;20217;-47
2022/08/10 03:29:47;;;;;;;2.70;2.50;;;;;;;11.36;99.71;102783.03;4971941;28;20203;-48
2022/08/10 03:32:13;;;;;;;2.80;2.40;;;;;;;11.35;100.00;102783.97;4982110;28;20295;-47
2022/08/10 03:34:39;;;;;;;5.32;2.58;;;;;;;11.37;100.00;102782.16;4979726;28;20178;-47
2022/08/10 03:37:05;;;;;;;2.60;2.38;;;;;;;11.33;100.00;102777.72;4970077;28;20241;-48
2022/08/10 03:39:31;;;;;;;4.18;2.47;;;;;;;11.28;100.00;102775.09;4971621;28;20174;-48
2022/08/10 03:41:59;;;;;;;4.10;2.40;;;;;;;11.41;100.00;102781.19;4971455;28;20338;-48
2022/08/10 03:44:28;;;;;;;3.95;2.08;;;;;;;11.48;100.00;102790.09;4970869;28;20193;-49
2022/08/10 03:46:56;;;;;;;2.47;2.28;;;;;;;11.54;100.00;102781.97;4971737;28;20240;-47
2022/08/10 03:49:22;;;;;;;2.55;2.35;;;;;;;11.53;99.90;102793.63;4971479;28;20177;-49
2022/08/10 03:51:50;;;;;;;2.60;2.40;;;;;;;11.61;99.79;102785.47;4971155;28;20171;-47
2022/08/10 03:54:16;;;;;;;2.55;2.35;;;;;;;11.49;99.48;102784.69;4970641;28;20273;-48
2022/08/10 03:56:42;;;;;;;4.32;2.80;;;;;;;11.41;99.58;102786.56;4970132;28;20560;-47
2022/08/10 03:59:10;;;;;;;3.22;2.35;;;;;;;11.39;99.67;102790.16;4971468;28;20181;-48
2022/08/10 04:01:36;;;;;;;2.40;2.20;;;;;;;11.46;100.00;102784.75;4969688;28;20222;-48
2022/08/10 04:04:02;;;;;;;2.63;2.38;;;;;;;11.47;99.96;102783.81;4970733;28;20178;-46
2022/08/10 04:06:28;;;;;;;2.47;2.28;;;;;;;11.49;100.00;102790.06;4971141;28;20189;-48
2022/08/10 04:08:54;;;;;;;2.90;2.47;;;;;;;11.37;99.54;102781.25;4971422;28;20197;-50
2022/08/10 04:11:20;;;;;;;4.60;2.80;;;;;;;11.30;99.83;102791.16;4971338;28;20638;-49
2022/08/10 04:13:45;;;;;;;2.70;2.50;;;;;;;11.37;100.00;102790.22;4970411;28;20310;-47
2022/08/10 04:16:11;;;;;;;3.17;2.30;;;;;;;11.36;100.00;102788.41;4971197;28;20194;-48
2022/08/10 04:18:36;;;;;;;2.83;2.50;;;;;;;11.31;100.00;102784.91;4970770;28;20273;-47
2022/08/10 04:21:08;;;;;;;2.83;2.63;;;;;;;11.34;100.00;102791.09;4971130;28;20166;-48
2022/08/10 04:23:37;;;;;;;3.05;2.33;;;;;;;11.47;100.00;102788.31;4970493;28;20202;-49
2022/08/10 04:26:03;;;;;;;4.15;2.60;;;;;;;11.55;100.00;102798.06;4989228;28;20187;-47
2022/08/10 04:28:30;;;;;;;3.08;2.63;;;;;;;11.55;100.00;102798.06;4990553;28;20201;-49
2022/08/10 04:30:57;;;;;;;2.97;2.50;;;;;;;11.60;99.72;102795.31;4993777;28;20235;-46
2022/08/10 04:33:25;;;;;;;3.22;2.50;;;;;;;11.66;99.73;102797.94;4993846;28;20197;-48
2022/08/10 04:35:52;;;;;;;3.20;2.90;;;;;;;11.74;99.64;102795.16;4994265;28;20196;-48
2022/08/10 04:38:19;;;;;;;3.65;2.72;;;;;;;11.75;99.54;102796.94;4994450;28;20657;-49
2022/08/10 04:40:46;;;;;;;2.70;2.50;;;;;;;11.84;99.31;102786.09;4994421;28;20169;-49
2022/08/10 04:43:12;;;;;;;3.47;3.20;;;;;;;11.85;99.41;102793.25;4992599;28;20213;-48
2022/08/10 04:45:39;;;;;;;4.53;3.30;;;;;;;11.89;99.17;102795.00;4994501;28;20648;-48
2022/08/10 04:48:04;;;;;;;3.22;2.92;;;;;;;12.01;99.18;102799.34;4994135;28;20170;-47
2022/08/10 04:50:30;;;;;;;5.20;3.47;;;;;;;12.12;99.12;102800.09;4994407;28;20276;-47
2022/08/10 04:52:55;;;;;;;3.97;3.33;;;;;;;12.26;99.27;102796.34;4993762;28;20539;-47
2022/08/10 04:55:21;;;;;;;4.13;3.30;;;;;;;12.40;99.19;102806.88;4994082;28;20625;-51
2022/08/10 04:57:46;;;;;;;3.85;3.55;;;;;;;12.52;99.00;102795.97;4994279;28;20193;-48
2022/08/10 05:00:12;;;;;;;3.67;3.38;;;;;;;12.73;98.68;102789.38;4993842;28;20633;-49
2022/08/10 05:02:38;;;;;;;3.63;3.33;;;;;;;13.03;98.25;102787.09;4993992;28;20213;-50
2022/08/10 05:05:04;;;;;;;4.13;3.50;;;;;;;13.28;97.69;102799.25;4993491;28;20236;-49
2022/08/10 05:07:29;;;;;;;4.25;3.85;;;;;;;13.47;96.77;102794.41;4994047;28;20231;-49
2022/08/10 05:09:55;;;;;;;5.95;3.80;;;;;;;13.65;95.03;102794.97;4994047;28;20208;-48
2022/08/10 05:12:21;;;;;;;4.40;3.17;;;;;;;13.82;93.85;102790.16;4993803;28;20205;-49
2022/08/10 05:14:46;;;;;;;3.88;3.35;;;;;;;13.95;92.83;102780.88;4993418;28;20174;-48
2022/08/10 05:17:12;;;;;;;3.08;2.85;;;;;;;14.16;91.98;102790.28;4993565;28;20177;-49
2022/08/10 05:19:37;;;;;;;4.47;2.70;;;;;;;14.28;91.59;102780.16;4993367;28;20264;-49
2022/08/10 05:22:03;;;;;;;2.65;2.45;;;;;;;14.37;92.15;102788.94;4993211;28;20651;-49
2022/08/10 05:24:29;;;;;;;3.78;2.80;;;;;;;14.50;92.11;102784.16;4993216;28;20173;-49
2022/08/10 05:26:55;;;;;;;3.30;2.80;;;;;;;14.59;92.01;102788.47;4992393;28;20193;-49
2022/08/10 05:29:21;;;;;;;3.47;2.83;;;;;;;14.60;91.42;102776.75;4993372;28;20311;-50
2022/08/10 05:31:47;;;;;;;3.95;2.80;;;;;;;14.72;92.04;102775.59;4993699;28;20178;-49
2022/08/10 05:34:12;;;;;;;3.78;3.08;;;;;;;14.73;92.40;102777.34;4992730;28;20297;-48
2022/08/10 05:36:38;;;;;;;4.32;2.65;;;;;;;14.91;92.92;102776.00;4993609;28;20203;-48
2022/08/10 05:39:04;;;;;;;3.88;2.53;;;;;;;15.00;93.04;102783.88;4993118;28;20197;-48
2022/08/10 05:41:31;;;;;;;4.05;2.88;;;;;;;15.20;93.54;102780.66;4993279;28;20236;-49
2022/08/10 05:43:56;;;;;;;3.42;2.85;;;;;;;15.34;93.53;102778.47;4992594;28;20208;-50
2022/08/10 05:46:22;;;;;;;3.65;3.00;;;;;;;15.52;92.93;102782.47;4993151;28;20305;-48
2022/08/10 05:48:48;;;;;;;5.43;3.35;;;;;;;15.73;92.49;102778.31;4993199;28;20165;-50
2022/08/10 05:51:15;;;;;;;4.88;3.80;;;;;;;16.03;92.11;102781.06;4991821;28;20178;-51
2022/08/10 05:53:40;;;;;;;4.18;3.38;;;;;;;16.39;91.51;102781.75;4992658;28;20656;-49
2022/08/10 05:56:07;;;;;;;5.22;3.10;;;;;;;16.74;90.78;102774.31;4992936;28;20217;-48
2022/08/10 05:58:37;;;;;;;3.92;3.08;;;;;;;17.09;90.00;102766.84;4992995;28;20204;-48
2022/08/10 06:01:05;;;;;;;4.70;3.17;;;;;;;17.39;89.14;102766.72;4991878;28;20165;-48
2022/08/10 06:03:36;;;;;;;2.97;2.78;;;;;;;17.75;88.67;102767.19;4991082;28;20197;-48
2022/08/10 06:06:07;;;;;;;3.25;2.97;;;;;;;17.44;88.98;102764.72;4992915;28;20649;-48
2022/08/10 06:08:34;;;;;;;3.72;3.28;;;;;;;17.03;92.37;102777.88;4992762;28;20173;-49
2022/08/10 06:11:04;;;;;;;4.60;4.20;;;;;;;17.06;94.46;102777.81;4992894;28;20196;-49
2022/08/10 06:16:18;;;;;;;6.30;4.80;;;;;;;17.36;96.26;102778.56;4992724;28;20169;-49
2022/08/10 06:18:44;;;;;;;6.57;4.75;;;;;;;17.83;95.38;102786.78;4992903;28;20204;-50
2022/08/10 06:21:10;;;;;;;7.15;4.40;;;;;;;17.94;94.32;102785.50;4990838;28;20170;-49
2022/08/10 06:23:38;;;;;;;6.53;4.65;;;;;;;18.37;92.56;102781.13;4991649;28;20208;-46
2022/08/10 06:26:06;;;;;;;4.78;4.38;;;;;;;18.70;91.63;102777.03;4991648;28;20185;-46
2022/08/10 06:28:34;;;;;;;5.68;3.97;;;;;;;18.77;89.82;102769.50;4992451;28;20532;-46
2022/08/10 06:31:01;;;;;;;7.25;4.20;;;;;;;18.72;88.91;102786.00;4992334;28;20637;-47
2022/08/10 06:33:30;;;;;;;5.75;4.10;;;;;;;18.67;90.34;102778.97;4991680;28;20201;-47
2022/08/10 06:35:58;;;;;;;5.78;4.28;;;;;;;18.84;89.54;102779.19;4992277;28;20256;-48
2022/08/10 06:38:27;;;;;;;4.45;4.00;;;;;;;19.06;88.33;102767.44;4991713;28;20185;-47
2022/08/10 06:40:57;;;;;;;4.70;3.80;;;;;;;19.29;86.95;102763.72;4992394;28;20729;-46
2022/08/10 06:43:24;;;;;;;6.15;4.40;;;;;;;18.66;87.97;102772.69;4991788;28;20196;-46
2022/08/10 06:45:59;;;;;;;9.00;4.32;;;;;;;18.18;89.67;102768.28;4991903;28;20249;-47
2022/08/10 06:48:39;;;;;;;5.13;4.20;;;;;;;18.53;90.40;102766.88;4991849;28;20188;-48
2022/08/10 06:51:14;;;;;;;4.45;3.78;;;;;;;18.67;89.51;102769.03;4991726;28;20275;-47
2022/08/10 06:53:47;;;;;;;4.15;3.60;;;;;;;18.83;88.80;102771.13;4990745;28;20201;-46
2022/08/10 06:56:17;;;;;;;7.15;4.15;;;;;;;19.22;87.76;102773.97;4991698;28;20169;-46
2022/08/10 06:58:51;;;;;;;5.40;5.03;;;;;;;19.30;87.21;102771.78;4991589;28;20182;-46
2022/08/10 07:01:20;;;;;;;10.90;8.98;;;;;;;19.19;87.15;102781.38;4991407;28;20273;-46
2022/08/10 07:03:54;;;;;;;11.65;8.07;;;;;;;19.32;87.25;102775.31;4991331;28;20277;-47
2022/08/10 07:06:20;;;;;;;8.75;6.68;;;;;;;19.29;87.35;102783.63;4991467;28;20537;-48
2022/08/10 07:08:48;;;;;;;7.55;6.85;;;;;;;19.44;86.72;102779.34;4991705;28;20189;-48
2022/08/10 07:11:17;;;;;;;6.63;5.68;;;;;;;19.66;86.04;102784.69;4991360;28;20170;-48
2022/08/10 07:13:44;;;;;;;7.75;5.43;;;;;;;20.01;85.53;102781.34;4990526;28;20209;-48
2022/08/10 07:16:12;;;;;;;5.25;4.38;;;;;;;20.19;84.32;102782.31;4991358;28;20182;-48
2022/08/10 07:18:38;;;;;;;4.40;2.70;;;;;;;19.87;84.16;102791.00;4990008;28;20209;-48
2022/08/10 07:21:06;;;;;;;6.40;3.05;;;;;;;19.80;84.05;102778.66;4991499;28;20621;-47
2022/08/10 07:23:34;;;;;;;8.27;2.90;;;;;;;19.86;83.37;102782.94;4990943;28;20689;-49
2022/08/10 07:26:00;;;;;;;4.65;2.28;;;;;;;20.06;82.88;102777.44;4990895;28;20200;-48
2022/08/10 07:28:30;;;;;;;6.10;2.63;;;;;;;20.19;81.89;102785.03;4991060;28;20185;-46
2022/08/10 07:30:57;;;;;;;3.53;3.03;;;;;;;20.20;82.08;102792.22;4991094;28;20189;-47
2022/08/10 07:33:23;;;;;;;6.70;2.90;;;;;;;20.27;81.63;102786.44;4990922;28;20200;-47
2022/08/10 07:35:49;;;;;;;6.30;2.67;;;;;;;20.31;80.88;102785.34;4991044;28;20649;-48
2022/08/10 07:38:24;;;;;;;7.03;2.88;;;;;;;20.61;79.64;102786.66;4991050;28;20188;-48
2022/08/10 07:40:51;;;;;;;6.18;3.00;;;;;;;20.63;79.10;102801.97;4991146;28;20248;-47
2022/08/10 07:43:21;;;;;;;3.08;2.10;;;;;;;20.70;78.77;102792.50;4990253;28;20208;-47
2022/08/10 07:45:48;;;;;;;2.47;2.20;;;;;;;20.80;78.43;102794.81;4991022;28;20185;-48
2022/08/10 07:48:34;;;;;;;2.58;2.28;;;;;;;21.02;78.51;102791.88;4990761;28;20173;-46
2022/08/10 07:51:01;;;;;;;3.95;2.35;;;;;;;21.08;77.44;102799.72;4990975;28;20165;-47
2022/08/10 07:53:44;;;;;;;3.38;2.60;;;;;;;20.83;78.01;102797.38;4990199;28;20952;-49
2022/08/10 07:56:11;;;;;;;4.97;2.28;;;;;;;21.16;77.43;102800.19;4989969;28;20188;-48
2022/08/10 07:59:08;;;;;;;4.85;2.40;;;;;;;20.53;77.92;102798.78;4990785;28;20228;-48
2022/08/10 08:01:39;;;;;;;3.58;2.33;;;;;;;20.46;78.96;102805.47;4988455;28;20328;-46
2022/08/10 08:04:05;;;;;;;6.03;2.38;;;;;;;;;;4990153;28;20165;-48
2022/08/10 08:06:32;;;;;;;4.75;2.42;;;;;;;21.13;77.09;102806.69;4990584;28;20271;-49
2022/08/10 08:09:00;;;;;;;4.47;2.20;;;;;;;20.82;76.80;102811.97;4990574;28;20185;-48
2022/08/10 08:11:27;;;;;;;2.97;2.45;;;;;;;20.67;77.87;102808.16;4990728;28;20212;-50
2022/08/10 08:13:54;;;;;;;3.20;2.67;;;;;;;20.78;78.15;102801.19;4990171;28;20204;-48
2022/08/10 08:16:21;;;;;;;4.28;2.60;;;;;;;20.99;78.49;102809.28;4990332;28;20162;-49
2022/08/10 08:18:51;;;;;;;4.18;2.10;;;;;;;21.19;77.05;102805.53;4990658;28;20193;-50
2022/08/10 08:21:17;;;;;;;3.80;2.30;;;;;;;21.13;76.75;102803.97;4990640;28;20548;-48
2022/08/10 08:23:45;;;;;;;2.40;2.20;;;;;;;21.25;76.07;102804.28;4990053;28;20205;-49
2022/08/10 08:26:11;;;;;;;7.38;2.35;;;;;;;21.27;75.73;102808.69;4990453;28;20539;-50
2022/08/10 08:28:39;;;;;;;3.92;2.45;;;;;;;21.29;76.80;102804.06;4989918;28;20231;-49
2022/08/10 08:31:05;;;;;;;4.70;2.40;;;;;;;21.32;76.15;102795.72;4990398;28;20189;-47
2022/08/10 08:33:32;;;;;;;3.63;2.10;;;;;;;21.34;75.53;102791.09;4990126;28;20699;-47
2022/08/10 08:35:59;;;;;;;4.65;2.53;;;;;;;21.32;74.65;102792.13;4990357;28;20604;-48
2022/08/10 08:38:25;;;;;;;2.95;2.45;;;;;;;21.25;75.25;102788.81;4990660;28;20672;-47
2022/08/10 08:41:11;;;;;;;7.00;2.45;;;;;;;21.53;75.01;102796.47;4990501;28;20268;-47
2022/08/10 08:43:37;;;;;;;3.72;2.20;;;;;;;21.49;75.11;102794.84;4990099;28;20317;-47
2022/08/10 08:46:32;;;;;;;3.97;2.35;;;;;;;21.39;75.94;102796.28;4990433;28;20338;-46
2022/08/10 08:49:21;;;;;;;3.67;2.10;;;;;;;21.37;74.39;102788.19;4990289;28;20312;-46
2022/08/10 08:52:06;;;;;;;3.35;2.10;;;;;;;21.26;74.09;102792.44;4990757;28;20184;-47
2022/08/10 08:54:50;;;;;;;4.63;2.20;;;;;;;21.49;74.13;102794.84;4989738;28;20185;-48
2022/08/10 08:57:41;;;;;;;3.78;1.90;;;;;;;21.39;74.10;102786.25;4990648;28;20614;-45
2022/08/10 09:00:18;;;;;;;3.85;2.55;;;;;;;21.71;74.29;102782.78;4990003;28;20193;-47
2022/08/10 09:03:15;;;;;;;3.13;2.15;;;;;;;21.80;74.22;102776.88;4990307;28;20216;-48
2022/08/10 09:06:00;;;;;;;4.40;2.67;;;;;;;21.43;74.33;102780.66;4990106;28;20192;-48
2022/08/10 09:08:25;;;;;;;5.43;2.60;;;;;;;21.43;74.01;102777.94;4990076;28;20177;-48
2022/08/10 09:10:59;;;;;;;5.43;2.25;;;;;;;21.62;74.60;102773.25;4990244;28;20441;-48
2022/08/10 09:13:43;;;;;;;4.55;2.70;;;;;;;21.55;74.18;102774.56;4989890;28;20243;-49
2022/08/10 09:16:31;;;;;;;5.18;2.40;;;;;;;21.63;74.29;102774.16;4991918;28;20177;-46
2022/08/10 09:19:07;;;;;;;5.15;2.33;;;;;;;21.33;74.59;102775.66;4993877;28;20760;-47
2022/08/10 09:21:45;;;;;;;4.10;2.13;;;;;;;21.39;74.56;102772.63;4993976;28;20690;-52
2022/08/10 09:24:26;;;;;;;5.13;2.28;;;;;;;21.63;72.65;102769.59;4992217;28;20197;-50
2022/08/10 09:26:52;;;;;;;2.88;1.88;;;;;;;21.65;72.14;102769.50;4993609;28;20189;-50
2022/08/10 09:30:06;;;;;;;4.65;1.90;;;;;;;21.73;72.11;102764.50;4993101;28;20181;-49
2022/08/10 09:32:41;;;;;;;4.82;1.92;;;;;;;21.57;70.58;102768.06;4992312;28;20221;-49
2022/08/10 09:35:17;;;;;;;3.85;1.95;;;;;;;21.61;70.45;102763.31;4991573;28;20184;-50
2022/08/10 09:37:58;;;;;;;1.83;1.60;;;;;;;21.63;71.73;102769.59;4992350;28;20636;-50
2022/08/10 09:40:48;;;;;;;3.25;2.22;;;;;;;21.68;71.66;102761.16;4992843;28;20582;-49
2022/08/10 09:43:25;;;;;;;2.45;1.40;;;;;;;21.82;69.90;102755.78;4986633;28;20600;-51
2022/08/10 09:46:11;;;;;;;1.95;1.05;;;;;;;21.77;66.41;102760.63;4993115;28;20219;-49
2022/08/10 09:48:53;;;;;;;3.65;1.67;;;;;;;21.77;68.09;102755.19;4993224;28;20173;-51
2022/08/10 09:51:29;;;;;;;2.85;1.33;;;;;;;21.76;67.64;102751.56;4992981;28;20192;-49
2022/08/10 09:54:06;;;;;;;4.13;1.30;;;;;;;21.78;66.66;102749.66;4992561;28;20204;-50
2022/08/10 09:56:59;;;;;;;1.63;1.02;;;;;;;21.60;67.35;102743.34;4992669;28;20225;-47
2022/08/10 09:59:27;;;;;;;1.50;1.40;;;;;;;21.46;67.71;102748.66;4992983;28;20188;-49
2022/08/10 10:02:03;;;;;;;3.53;1.30;;;;;;;21.48;68.05;102746.75;4992855;28;20284;-48
2022/08/10 10:05:04;;;;;;;2.05;1.45;;;;;;;21.70;66.92;102746.44;4992267;28;20185;-49
2022/08/10 10:07:30;;;;;;;2.35;1.10;;;;;;;21.69;67.19;102746.53;4993086;28;20605;-49
2022/08/10 10:10:23;;;;;;;0.90;0.90;;;;;;;21.43;66.46;102743.38;4992629;28;20268;-49
2022/08/10 10:13:06;;;;;;;2.67;1.27;;;;;;;21.41;66.57;102742.59;4992628;28;20304;-50
2022/08/10 10:15:46;;;;;;;2.38;1.30;;;;;;;21.75;67.23;102741.59;4992504;28;20235;-50
2022/08/10 10:18:26;;;;;;;1.55;1.30;;;;;;;21.45;68.98;102741.47;4992603;28;20176;-49
2022/08/10 10:21:07;;;;;;;4.53;1.10;;;;;;;21.35;67.59;102738.28;4991319;28;20177;-49
2022/08/10 10:23:36;;;;;;;4.70;1.50;;;;;;;21.16;69.74;102741.09;4992099;28;20209;-49
2022/08/10 10:26:25;;;;;;;1.70;1.58;;;;;;;21.43;70.01;102740.66;4992044;28;20243;-49
2022/08/10 10:29:19;;;;;;;2.25;1.15;;;;;;;21.55;67.36;102725.47;4992080;28;20181;-48
2022/08/10 10:32:27;;;;;;;3.05;1.40;;;;;;;21.44;67.94;102738.81;4992262;28;20161;-49
2022/08/10 10:35:16;;;;;;;1.98;1.13;;;;;;;21.20;68.73;102737.25;4986157;28;20192;-49
2022/08/10 10:37:44;;;;;;;3.38;1.23;;;;;;;21.34;69.18;102731.09;4992266;28;20228;-49
2022/08/10 10:40:13;;;;;;;4.85;1.38;;;;;;;21.62;68.06;102735.06;4992211;28;20227;-50
2022/08/10 10:42:49;;;;;;;1.33;1.23;;;;;;;21.50;67.74;102727.56;4990579;28;20197;-50
2022/08/10 10:45:25;;;;;;;3.42;1.40;;;;;;;21.59;68.80;102732.53;4991868;28;20191;-49
2022/08/10 10:48:15;;;;;;;1.38;1.23;;;;;;;21.44;68.28;102717.88;4992330;28;20542;-50
2022/08/10 10:50:59;;;;;;;1.50;1.10;;;;;;;21.49;67.78;102723.06;4991930;28;20169;-49
2022/08/10 10:53:38;;;;;;;2.08;1.25;;;;;;;21.82;67.86;102714.88;4991612;28;20197;-49
2022/08/10 10:56:15;;;;;;;3.90;1.40;;;;;;;21.60;68.56;102715.19;4991774;28;20227;-50
2022/08/10 10:59:02;;;;;;;1.42;0.98;;;;;;;21.39;67.60;102715.34;4990672;28;20165;-49
2022/08/10 11:01:37;;;;;;;3.20;1.10;;;;;;;21.60;66.53;102705.16;4992013;28;20221;-48
2022/08/10 11:04:20;;;;;;;3.60;1.33;;;;;;;21.44;66.59;102704.22;4991235;28;20232;-47
2022/08/10 11:07:00;;;;;;;1.38;1.08;;;;;;;21.20;66.91;102709.13;4991638;28;20248;-51
2022/08/10 11:09:51;;;;;;;1.42;1.00;;;;;;;21.54;66.40;102707.34;4991943;28;20220;-49
2022/08/10 11:12:20;;;;;;;3.30;1.40;;;;;;;21.37;67.76;102706.38;4988366;28;20291;-49
2022/08/10 11:15:20;;;;;;;2.22;1.20;;;;;;;21.27;68.34;102712.41;4991194;28;20227;-50
2022/08/10 11:17:49;;;;;;;1.83;1.10;;;;;;;21.52;66.67;102703.81;4991200;28;20207;-50
2022/08/10 11:20:23;;;;;;;2.05;1.30;;;;;;;21.43;67.45;102707.03;4991610;28;20637;-49
2022/08/10 11:22:56;;;;;;;0.82;0.82;;;;;;;21.52;65.93;102698.38;4990344;28;20213;-50
2022/08/10 11:25:35;;;;;;;2.75;0.90;;;;;;;21.66;64.54;102697.59;4989638;28;20188;-47
2022/08/10 11:28:16;;;;;;;0.85;0.70;;;;;;;21.47;63.54;102695.91;4990035;28;20259;-49
2022/08/10 11:30:56;;;;;;;2.95;1.10;;;;;;;21.39;66.19;102693.53;4991069;28;20205;-50
2022/08/10 11:33:39;;;;;;;2.38;1.20;;;;;;;21.49;66.67;102690.34;4990818;28;20208;-49
2022/08/10 11:36:20;;;;;;;0.90;0.90;;;;;;;21.43;67.32;102691.56;4989694;28;20166;-50
2022/08/10 11:39:13;;;;;;;1.10;1.00;;;;;;;21.34;67.03;102687.47;4990958;28;20189;-48
2022/08/10 11:41:44;;;;;;;0.75;0.75;;;;;;;21.39;66.55;102687.22;4990920;28;20610;-48
2022/08/10 11:44:33;;;;;;;1.50;1.33;;;;;;;21.24;67.82;102682.59;4990875;28;20158;-48
2022/08/10 11:47:07;;;;;;;3.17;1.73;;;;;;;21.58;68.75;102689.81;4989707;28;20580;-50
2022/08/10 11:49:42;;;;;;;4.68;1.20;;;;;;;21.47;67.39;102693.16;4991311;28;20649;-49